sensor_id;sensor_type;location;lat;lon;timestamp;temperature;humidity
52321;DHT22;38261;54.090;13.382;2022-11-04T00:00:21;8.90;99.90
52321;DHT22;38261;54.090;13.382;2022-11-04T00:01:50;8.80;99.90
52321;DHT22;38261;54.090;13.382;2022-11-04T00:03:13;8.80;99.90
52321;DHT22;38261;54.090;13.382;2022-11-04T00:04:35;8.80;99.90
52321;DHT22;38261;54.090;13.382;2022-11-04T00:06:00;8.80;99.90
52321;DHT22;38261;54.090;13.382;2022-11-04T00:07:22;8.80;99.90
52321;DHT22;38261;54.090;13.382;2022-11-04T00:09:05;8.80;99.90
52321;DHT22;38261;54.090;13.382;2022-11-04T00:10:27;8.80;99.90
52321;DHT22;38261;54.090;13.382;2022-11-04T00:12:08;8.80;99.90
52321;DHT22;38261;54.090;13.382;2022-11-04T00:13:45;8.70;99.90
52321;DHT22;38261;54.090;13.382;2022-11-04T00:15:08;8.70;99.90
52321;DHT22;38261;54.090;13.382;2022-11-04T00:16:48;8.70;99.90
52321;DHT22;38261;54.090;13.382;2022-11-04T00:18:29;8.70;99.90
52321;DHT22;38261;54.090;13.382;2022-11-04T00:19:53;8.70;99.90
52321;DHT22;38261;54.090;13.382;2022-11-04T00:21:34;8.70;99.90
52321;DHT22;38261;54.090;13.382;2022-11-04T00:23:15;8.60;99.90
52321;DHT22;38261;54.090;13.382;2022-11-04T00:24:55;8.60;99.90
52321;DHT22;38261;54.090;13.382;2022-11-04T00:26:36;8.60;99.90
52321;DHT22;38261;54.090;13.382;2022-11-04T00:28:18;8.60;99.90
52321;DHT22;38261;54.090;13.382;2022-11-04T00:29:59;8.70;99.90
52321;DHT22;38261;54.090;13.382;2022-11-04T00:31:21;8.70;99.90
52321;DHT22;38261;54.090;13.382;2022-11-04T00:33:02;8.70;99.90
52321;DHT22;38261;54.090;13.382;2022-11-04T00:34:42;8.60;99.90
52321;DHT22;38261;54.090;13.382;2022-11-04T00:36:05;8.60;99.90
52321;DHT22;38261;54.090;13.382;2022-11-04T00:37:27;8.60;99.90
52321;DHT22;38261;54.090;13.382;2022-11-04T00:38:49;8.60;99.90
52321;DHT22;38261;54.090;13.382;2022-11-04T00:40:13;8.60;99.90
52321;DHT22;38261;54.090;13.382;2022-11-04T00:41:35;8.60;99.90
52321;DHT22;38261;54.090;13.382;2022-11-04T00:42:57;8.60;99.90
52321;DHT22;38261;54.090;13.382;2022-11-04T00:44:19;8.70;99.90
52321;DHT22;38261;54.090;13.382;2022-11-04T00:45:41;8.70;99.90
52321;DHT22;38261;54.090;13.382;2022-11-04T00:47:04;8.70;99.90
52321;DHT22;38261;54.090;13.382;2022-11-04T00:48:26;8.70;99.90
52321;DHT22;38261;54.090;13.382;2022-11-04T00:49:48;8.70;99.90
52321;DHT22;38261;54.090;13.382;2022-11-04T00:51:10;8.70;99.90
52321;DHT22;38261;54.090;13.382;2022-11-04T00:52:32;8.70;99.90
52321;DHT22;38261;54.090;13.382;2022-11-04T00:53:54;8.70;99.90
52321;DHT22;38261;54.090;13.382;2022-11-04T00:55:18;8.70;99.90
52321;DHT22;38261;54.090;13.382;2022-11-04T00:56:40;8.70;99.90
52321;DHT22;38261;54.090;13.382;2022-11-04T00:58:03;8.70;99.90
52321;DHT22;38261;54.090;13.382;2022-11-04T00:59:25;8.70;99.90
52321;DHT22;38261;54.090;13.382;2022-11-04T01:00:47;8.70;99.90
52321;DHT22;38261;54.090;13.382;2022-11-04T01:02:09;8.70;99.90
52321;DHT22;38261;54.090;13.382;2022-11-04T01:03:31;8.70;99.90
52321;DHT22;38261;54.090;13.382;2022-11-04T01:04:53;8.70;99.90
52321;DHT22;38261;54.090;13.382;2022-11-04T01:06:16;8.70;99.90
52321;DHT22;38261;54.090;13.382;2022-11-04T01:07:39;8.70;99.90
52321;DHT22;38261;54.090;13.382;2022-11-04T01:09:06;8.70;99.90
52321;DHT22;38261;54.090;13.382;2022-11-04T01:10:29;8.70;99.90
52321;DHT22;38261;54.090;13.382;2022-11-04T01:11:51;8.70;99.90
52321;DHT22;38261;54.090;13.382;2022-11-04T01:13:13;8.70;99.90
52321;DHT22;38261;54.090;13.382;2022-11-04T01:14:35;8.70;99.90
52321;DHT22;38261;54.090;13.382;2022-11-04T01:16:01;8.70;99.90
52321;DHT22;38261;54.090;13.382;2022-11-04T01:17:24;8.70;99.90
52321;DHT22;38261;54.090;13.382;2022-11-04T01:18:46;8.70;99.90
52321;DHT22;38261;54.090;13.382;2022-11-04T01:20:09;8.70;99.90
52321;DHT22;38261;54.090;13.382;2022-11-04T01:21:31;8.70;99.90
52321;DHT22;38261;54.090;13.382;2022-11-04T01:22:53;8.70;99.90
52321;DHT22;38261;54.090;13.382;2022-11-04T01:24:15;8.70;99.90
52321;DHT22;38261;54.090;13.382;2022-11-04T01:25:40;8.70;99.90
52321;DHT22;38261;54.090;13.382;2022-11-04T01:27:02;8.70;99.90
52321;DHT22;38261;54.090;13.382;2022-11-04T01:28:25;8.70;99.90
52321;DHT22;38261;54.090;13.382;2022-11-04T01:29:47;8.70;99.90
52321;DHT22;38261;54.090;13.382;2022-11-04T01:31:12;8.70;99.90
52321;DHT22;38261;54.090;13.382;2022-11-04T01:32:34;8.70;99.90
52321;DHT22;38261;54.090;13.382;2022-11-04T01:33:58;8.70;99.90
52321;DHT22;38261;54.090;13.382;2022-11-04T01:35:20;8.70;99.90
52321;DHT22;38261;54.090;13.382;2022-11-04T01:36:42;8.70;99.90
52321;DHT22;38261;54.090;13.382;2022-11-04T01:38:04;8.70;99.90
52321;DHT22;38261;54.090;13.382;2022-11-04T01:39:27;8.70;99.90
52321;DHT22;38261;54.090;13.382;2022-11-04T01:40:49;8.70;99.90
52321;DHT22;38261;54.090;13.382;2022-11-04T01:42:12;8.70;99.90
52321;DHT22;38261;54.090;13.382;2022-11-04T01:45:55;8.70;99.90
52321;DHT22;38261;54.090;13.382;2022-11-04T01:47:36;8.70;99.90
52321;DHT22;38261;54.090;13.382;2022-11-04T01:49:32;8.70;99.90
52321;DHT22;38261;54.090;13.382;2022-11-04T01:51:01;8.70;99.90
52321;DHT22;38261;54.090;13.382;2022-11-04T01:52:29;8.60;99.90
52321;DHT22;38261;54.090;13.382;2022-11-04T01:53:54;8.60;99.90
52321;DHT22;38261;54.090;13.382;2022-11-04T01:55:23;8.70;99.90
52321;DHT22;38261;54.090;13.382;2022-11-04T01:56:47;8.60;99.90
52321;DHT22;38261;54.090;13.382;2022-11-04T01:58:12;8.60;99.90
52321;DHT22;38261;54.090;13.382;2022-11-04T01:59:38;8.60;99.90
52321;DHT22;38261;54.090;13.382;2022-11-04T02:01:01;8.60;99.90
52321;DHT22;38261;54.090;13.382;2022-11-04T02:02:23;8.60;99.90
52321;DHT22;38261;54.090;13.382;2022-11-04T02:03:57;8.60;99.90
52321;DHT22;38261;54.090;13.382;2022-11-04T02:05:41;8.50;99.90
52321;DHT22;38261;54.090;13.382;2022-11-04T02:07:05;8.50;99.90
52321;DHT22;38261;54.090;13.382;2022-11-04T02:08:28;8.50;99.90
52321;DHT22;38261;54.090;13.382;2022-11-04T02:09:50;8.50;99.90
52321;DHT22;38261;54.090;13.382;2022-11-04T02:11:13;8.50;99.90
52321;DHT22;38261;54.090;13.382;2022-11-04T02:12:56;8.50;99.90
52321;DHT22;38261;54.090;13.382;2022-11-04T02:14:18;8.50;99.90
52321;DHT22;38261;54.090;13.382;2022-11-04T02:15:56;8.50;99.90
52321;DHT22;38261;54.090;13.382;2022-11-04T02:17:35;8.50;99.90
52321;DHT22;38261;54.090;13.382;2022-11-04T02:21:09;8.50;99.90
52321;DHT22;38261;54.090;13.382;2022-11-04T02:24:55;8.50;99.90
52321;DHT22;38261;54.090;13.382;2022-11-04T02:33:25;8.50;99.90
52321;DHT22;38261;54.090;13.382;2022-11-04T02:35:11;8.40;99.90
52321;DHT22;38261;54.090;13.382;2022-11-04T02:38:56;8.40;99.90
52321;DHT22;38261;54.090;13.382;2022-11-04T02:43:20;8.40;99.90
52321;DHT22;38261;54.090;13.382;2022-11-04T02:44:50;8.40;99.90
52321;DHT22;38261;54.090;13.382;2022-11-04T02:46:39;8.40;99.90
52321;DHT22;38261;54.090;13.382;2022-11-04T02:49:39;8.40;99.90
52321;DHT22;38261;54.090;13.382;2022-11-04T02:51:29;8.30;99.90
52321;DHT22;38261;54.090;13.382;2022-11-04T02:53:06;8.30;99.90
52321;DHT22;38261;54.090;13.382;2022-11-04T02:54:40;8.30;99.90
52321;DHT22;38261;54.090;13.382;2022-11-04T02:56:04;8.30;99.90
52321;DHT22;38261;54.090;13.382;2022-11-04T02:57:30;8.30;99.90
52321;DHT22;38261;54.090;13.382;2022-11-04T02:58:56;8.30;99.90
52321;DHT22;38261;54.090;13.382;2022-11-04T03:00:19;8.30;99.90
52321;DHT22;38261;54.090;13.382;2022-11-04T03:01:44;8.30;99.90
52321;DHT22;38261;54.090;13.382;2022-11-04T03:03:23;8.20;99.90
52321;DHT22;38261;54.090;13.382;2022-11-04T03:04:50;8.20;99.90
52321;DHT22;38261;54.090;13.382;2022-11-04T03:06:16;8.20;99.90
52321;DHT22;38261;54.090;13.382;2022-11-04T03:07:42;8.20;99.90
52321;DHT22;38261;54.090;13.382;2022-11-04T03:09:07;8.20;99.90
52321;DHT22;38261;54.090;13.382;2022-11-04T03:10:37;8.20;99.90
52321;DHT22;38261;54.090;13.382;2022-11-04T03:12:08;8.20;99.90
52321;DHT22;38261;54.090;13.382;2022-11-04T03:14:47;8.20;99.90
52321;DHT22;38261;54.090;13.382;2022-11-04T03:16:19;8.20;99.90
52321;DHT22;38261;54.090;13.382;2022-11-04T03:18:18;8.20;99.90
52321;DHT22;38261;54.090;13.382;2022-11-04T03:19:53;8.10;99.90
52321;DHT22;38261;54.090;13.382;2022-11-04T03:21:19;8.10;99.90
52321;DHT22;38261;54.090;13.382;2022-11-04T03:22:42;8.10;99.90
52321;DHT22;38261;54.090;13.382;2022-11-04T03:24:04;8.10;99.90
52321;DHT22;38261;54.090;13.382;2022-11-04T03:25:34;8.10;99.90
52321;DHT22;38261;54.090;13.382;2022-11-04T03:27:14;8.10;99.90
52321;DHT22;38261;54.090;13.382;2022-11-04T03:28:49;8.10;99.90
52321;DHT22;38261;54.090;13.382;2022-11-04T03:30:16;8.10;99.90
52321;DHT22;38261;54.090;13.382;2022-11-04T03:33:47;8.10;99.90
52321;DHT22;38261;54.090;13.382;2022-11-04T03:35:11;8.10;99.90
52321;DHT22;38261;54.090;13.382;2022-11-04T03:36:34;8.10;99.90
52321;DHT22;38261;54.090;13.382;2022-11-04T03:37:57;8.00;99.90
52321;DHT22;38261;54.090;13.382;2022-11-04T03:39:19;8.00;99.90
52321;DHT22;38261;54.090;13.382;2022-11-04T03:40:41;8.00;99.90
52321;DHT22;38261;54.090;13.382;2022-11-04T03:42:07;8.00;99.90
52321;DHT22;38261;54.090;13.382;2022-11-04T03:43:41;8.00;99.90
52321;DHT22;38261;54.090;13.382;2022-11-04T03:45:04;8.00;99.90
52321;DHT22;38261;54.090;13.382;2022-11-04T03:46:27;8.00;99.90
52321;DHT22;38261;54.090;13.382;2022-11-04T03:47:50;8.00;99.90
52321;DHT22;38261;54.090;13.382;2022-11-04T03:49:13;8.00;99.90
52321;DHT22;38261;54.090;13.382;2022-11-04T03:50:41;8.00;99.90
52321;DHT22;38261;54.090;13.382;2022-11-04T03:52:03;8.00;99.90
52321;DHT22;38261;54.090;13.382;2022-11-04T03:53:26;8.10;99.90
52321;DHT22;38261;54.090;13.382;2022-11-04T03:54:50;8.00;99.90
52321;DHT22;38261;54.090;13.382;2022-11-04T03:57:51;8.10;99.90
52321;DHT22;38261;54.090;13.382;2022-11-04T04:03:05;8.00;99.90
52321;DHT22;38261;54.090;13.382;2022-11-04T04:06:20;8.00;99.90
52321;DHT22;38261;54.090;13.382;2022-11-04T04:09:22;8.10;99.90
52321;DHT22;38261;54.090;13.382;2022-11-04T04:12:36;8.10;99.90
52321;DHT22;38261;54.090;13.382;2022-11-04T04:14:07;8.10;99.90
52321;DHT22;38261;54.090;13.382;2022-11-04T04:16:00;8.10;99.90
52321;DHT22;38261;54.090;13.382;2022-11-04T04:17:37;8.10;99.90
52321;DHT22;38261;54.090;13.382;2022-11-04T04:19:15;8.20;99.90
52321;DHT22;38261;54.090;13.382;2022-11-04T04:20:40;8.20;99.90
52321;DHT22;38261;54.090;13.382;2022-11-04T04:22:08;8.20;99.90
52321;DHT22;38261;54.090;13.382;2022-11-04T04:23:33;8.20;99.90
52321;DHT22;38261;54.090;13.382;2022-11-04T04:25:15;8.20;99.90
52321;DHT22;38261;54.090;13.382;2022-11-04T04:26:57;8.20;99.90
52321;DHT22;38261;54.090;13.382;2022-11-04T04:28:39;8.20;99.90
52321;DHT22;38261;54.090;13.382;2022-11-04T04:30:08;8.20;99.90
52321;DHT22;38261;54.090;13.382;2022-11-04T04:31:31;8.20;99.90
52321;DHT22;38261;54.090;13.382;2022-11-04T04:33:16;8.20;99.90
52321;DHT22;38261;54.090;13.382;2022-11-04T04:34:39;8.20;99.90
52321;DHT22;38261;54.090;13.382;2022-11-04T04:36:01;8.30;99.90
52321;DHT22;38261;54.090;13.382;2022-11-04T04:37:25;8.30;99.90
52321;DHT22;38261;54.090;13.382;2022-11-04T04:38:48;8.30;99.90
52321;DHT22;38261;54.090;13.382;2022-11-04T04:40:29;8.30;99.90
52321;DHT22;38261;54.090;13.382;2022-11-04T04:42:10;8.30;99.90
52321;DHT22;38261;54.090;13.382;2022-11-04T04:43:51;8.30;99.90
52321;DHT22;38261;54.090;13.382;2022-11-04T04:45:34;8.20;99.90
52321;DHT22;38261;54.090;13.382;2022-11-04T04:46:58;8.30;99.90
52321;DHT22;38261;54.090;13.382;2022-11-04T04:48:21;8.30;99.90
52321;DHT22;38261;54.090;13.382;2022-11-04T04:49:54;8.20;99.90
52321;DHT22;38261;54.090;13.382;2022-11-04T04:51:16;8.20;99.90
52321;DHT22;38261;54.090;13.382;2022-11-04T04:52:42;8.20;99.90
52321;DHT22;38261;54.090;13.382;2022-11-04T04:54:05;8.20;99.90
52321;DHT22;38261;54.090;13.382;2022-11-04T04:55:27;8.20;99.90
52321;DHT22;38261;54.090;13.382;2022-11-04T04:56:50;8.20;99.90
52321;DHT22;38261;54.090;13.382;2022-11-04T04:58:12;8.20;99.90
52321;DHT22;38261;54.090;13.382;2022-11-04T04:59:35;8.20;99.90
52321;DHT22;38261;54.090;13.382;2022-11-04T05:00:57;8.20;99.90
52321;DHT22;38261;54.090;13.382;2022-11-04T05:02:19;8.20;99.90
52321;DHT22;38261;54.090;13.382;2022-11-04T05:03:41;8.20;99.90
52321;DHT22;38261;54.090;13.382;2022-11-04T05:05:06;8.20;99.90
52321;DHT22;38261;54.090;13.382;2022-11-04T05:06:28;8.20;99.90
52321;DHT22;38261;54.090;13.382;2022-11-04T05:07:50;8.30;99.90
52321;DHT22;38261;54.090;13.382;2022-11-04T05:09:12;8.30;99.90
52321;DHT22;38261;54.090;13.382;2022-11-04T05:10:35;8.30;99.90
52321;DHT22;38261;54.090;13.382;2022-11-04T05:11:57;8.30;99.90
52321;DHT22;38261;54.090;13.382;2022-11-04T05:13:19;8.30;99.90
52321;DHT22;38261;54.090;13.382;2022-11-04T05:14:46;8.40;99.90
52321;DHT22;38261;54.090;13.382;2022-11-04T05:16:10;8.40;99.90
52321;DHT22;38261;54.090;13.382;2022-11-04T05:17:32;8.40;99.90
52321;DHT22;38261;54.090;13.382;2022-11-04T05:18:54;8.40;99.90
52321;DHT22;38261;54.090;13.382;2022-11-04T05:20:16;8.50;99.90
52321;DHT22;38261;54.090;13.382;2022-11-04T05:21:38;8.50;99.90
52321;DHT22;38261;54.090;13.382;2022-11-04T05:23:00;8.50;99.90
52321;DHT22;38261;54.090;13.382;2022-11-04T05:24:22;8.50;99.90
52321;DHT22;38261;54.090;13.382;2022-11-04T05:25:44;8.60;99.90
52321;DHT22;38261;54.090;13.382;2022-11-04T05:27:06;8.60;99.90
52321;DHT22;38261;54.090;13.382;2022-11-04T05:28:29;8.60;99.90
52321;DHT22;38261;54.090;13.382;2022-11-04T05:29:51;8.60;99.90
52321;DHT22;38261;54.090;13.382;2022-11-04T05:31:13;8.60;99.90
52321;DHT22;38261;54.090;13.382;2022-11-04T05:32:35;8.60;99.90
52321;DHT22;38261;54.090;13.382;2022-11-04T05:33:57;8.60;99.90
52321;DHT22;38261;54.090;13.382;2022-11-04T05:35:20;8.60;99.90
52321;DHT22;38261;54.090;13.382;2022-11-04T05:36:42;8.70;99.90
52321;DHT22;38261;54.090;13.382;2022-11-04T05:38:04;8.60;99.90
52321;DHT22;38261;54.090;13.382;2022-11-04T05:39:26;8.70;99.90
52321;DHT22;38261;54.090;13.382;2022-11-04T05:40:48;8.70;99.90
52321;DHT22;38261;54.090;13.382;2022-11-04T05:42:10;8.70;99.90
52321;DHT22;38261;54.090;13.382;2022-11-04T05:43:33;8.70;99.90
52321;DHT22;38261;54.090;13.382;2022-11-04T05:44:55;8.70;99.90
52321;DHT22;38261;54.090;13.382;2022-11-04T05:46:17;8.70;99.90
52321;DHT22;38261;54.090;13.382;2022-11-04T05:47:39;8.70;99.90
52321;DHT22;38261;54.090;13.382;2022-11-04T05:49:01;8.80;99.90
52321;DHT22;38261;54.090;13.382;2022-11-04T05:50:23;8.80;99.90
52321;DHT22;38261;54.090;13.382;2022-11-04T05:51:46;8.80;99.90
52321;DHT22;38261;54.090;13.382;2022-11-04T05:53:08;8.80;99.90
52321;DHT22;38261;54.090;13.382;2022-11-04T05:54:30;8.80;99.90
52321;DHT22;38261;54.090;13.382;2022-11-04T05:55:52;8.80;99.90
52321;DHT22;38261;54.090;13.382;2022-11-04T05:57:14;8.70;99.90
52321;DHT22;38261;54.090;13.382;2022-11-04T05:58:36;8.80;99.90
52321;DHT22;38261;54.090;13.382;2022-11-04T05:59:58;8.70;99.90
52321;DHT22;38261;54.090;13.382;2022-11-04T06:01:38;8.70;99.90
52321;DHT22;38261;54.090;13.382;2022-11-04T06:03:01;8.70;99.90
52321;DHT22;38261;54.090;13.382;2022-11-04T06:04:23;8.70;99.90
52321;DHT22;38261;54.090;13.382;2022-11-04T06:05:45;8.70;99.90
52321;DHT22;38261;54.090;13.382;2022-11-04T06:07:08;8.70;99.90
52321;DHT22;38261;54.090;13.382;2022-11-04T06:08:30;8.70;99.90
52321;DHT22;38261;54.090;13.382;2022-11-04T06:09:52;8.70;99.90
52321;DHT22;38261;54.090;13.382;2022-11-04T06:11:14;8.60;99.90
52321;DHT22;38261;54.090;13.382;2022-11-04T06:12:36;8.60;99.90
52321;DHT22;38261;54.090;13.382;2022-11-04T06:13:59;8.60;99.90
52321;DHT22;38261;54.090;13.382;2022-11-04T06:15:21;8.70;99.90
52321;DHT22;38261;54.090;13.382;2022-11-04T06:16:43;8.70;99.90
52321;DHT22;38261;54.090;13.382;2022-11-04T06:18:05;8.70;99.90
52321;DHT22;38261;54.090;13.382;2022-11-04T06:19:27;8.70;99.90
52321;DHT22;38261;54.090;13.382;2022-11-04T06:20:49;8.70;99.90
52321;DHT22;38261;54.090;13.382;2022-11-04T06:22:13;8.70;99.90
52321;DHT22;38261;54.090;13.382;2022-11-04T06:23:35;8.70;99.90
52321;DHT22;38261;54.090;13.382;2022-11-04T06:24:57;8.70;99.90
52321;DHT22;38261;54.090;13.382;2022-11-04T06:26:20;8.70;99.90
52321;DHT22;38261;54.090;13.382;2022-11-04T06:27:48;8.70;99.90
52321;DHT22;38261;54.090;13.382;2022-11-04T06:29:11;8.70;99.90
52321;DHT22;38261;54.090;13.382;2022-11-04T06:30:33;8.70;99.90
52321;DHT22;38261;54.090;13.382;2022-11-04T06:31:55;8.80;99.90
52321;DHT22;38261;54.090;13.382;2022-11-04T06:33:17;8.70;99.90
52321;DHT22;38261;54.090;13.382;2022-11-04T06:34:39;8.70;99.90
52321;DHT22;38261;54.090;13.382;2022-11-04T06:36:04;8.70;99.90
52321;DHT22;38261;54.090;13.382;2022-11-04T06:37:26;8.80;99.90
52321;DHT22;38261;54.090;13.382;2022-11-04T06:38:48;8.80;99.90
52321;DHT22;38261;54.090;13.382;2022-11-04T06:40:10;8.80;99.90
52321;DHT22;38261;54.090;13.382;2022-11-04T06:41:33;8.80;99.90
52321;DHT22;38261;54.090;13.382;2022-11-04T06:42:55;8.80;99.90
52321;DHT22;38261;54.090;13.382;2022-11-04T06:44:17;8.80;99.90
52321;DHT22;38261;54.090;13.382;2022-11-04T06:45:39;8.80;99.90
52321;DHT22;38261;54.090;13.382;2022-11-04T06:47:01;8.80;99.90
52321;DHT22;38261;54.090;13.382;2022-11-04T06:48:24;8.80;99.90
52321;DHT22;38261;54.090;13.382;2022-11-04T06:49:46;8.80;99.90
52321;DHT22;38261;54.090;13.382;2022-11-04T06:51:08;8.80;99.90
52321;DHT22;38261;54.090;13.382;2022-11-04T06:52:30;8.90;99.90
52321;DHT22;38261;54.090;13.382;2022-11-04T06:53:52;8.80;99.90
52321;DHT22;38261;54.090;13.382;2022-11-04T06:55:14;8.90;99.90
52321;DHT22;38261;54.090;13.382;2022-11-04T06:56:37;8.90;99.90
52321;DHT22;38261;54.090;13.382;2022-11-04T06:57:59;8.90;99.90
52321;DHT22;38261;54.090;13.382;2022-11-04T06:59:21;8.90;99.90
52321;DHT22;38261;54.090;13.382;2022-11-04T07:00:50;8.90;99.90
52321;DHT22;38261;54.090;13.382;2022-11-04T07:02:13;8.90;99.90
52321;DHT22;38261;54.090;13.382;2022-11-04T07:03:35;8.90;99.90
52321;DHT22;38261;54.090;13.382;2022-11-04T07:04:57;9.00;99.90
52321;DHT22;38261;54.090;13.382;2022-11-04T07:06:20;9.00;99.90
52321;DHT22;38261;54.090;13.382;2022-11-04T07:07:42;9.00;99.90
52321;DHT22;38261;54.090;13.382;2022-11-04T07:09:04;9.00;99.90
52321;DHT22;38261;54.090;13.382;2022-11-04T07:10:27;9.00;99.90
52321;DHT22;38261;54.090;13.382;2022-11-04T07:11:49;9.00;99.90
52321;DHT22;38261;54.090;13.382;2022-11-04T07:13:11;9.00;99.90
52321;DHT22;38261;54.090;13.382;2022-11-04T07:14:33;9.00;99.90
52321;DHT22;38261;54.090;13.382;2022-11-04T07:15:55;9.00;99.90
52321;DHT22;38261;54.090;13.382;2022-11-04T07:17:18;9.00;99.90
52321;DHT22;38261;54.090;13.382;2022-11-04T07:18:40;9.00;99.90
52321;DHT22;38261;54.090;13.382;2022-11-04T07:20:03;9.00;99.90
52321;DHT22;38261;54.090;13.382;2022-11-04T07:21:26;9.00;99.90
52321;DHT22;38261;54.090;13.382;2022-11-04T07:22:48;9.10;99.90
52321;DHT22;38261;54.090;13.382;2022-11-04T07:24:10;9.00;99.90
52321;DHT22;38261;54.090;13.382;2022-11-04T07:25:32;9.10;99.90
52321;DHT22;38261;54.090;13.382;2022-11-04T07:26:54;9.10;99.90
52321;DHT22;38261;54.090;13.382;2022-11-04T07:28:17;9.10;99.90
52321;DHT22;38261;54.090;13.382;2022-11-04T07:29:39;9.10;99.90
52321;DHT22;38261;54.090;13.382;2022-11-04T07:31:02;9.10;99.90
52321;DHT22;38261;54.090;13.382;2022-11-04T07:32:24;9.10;99.90
52321;DHT22;38261;54.090;13.382;2022-11-04T07:33:46;9.00;99.90
52321;DHT22;38261;54.090;13.382;2022-11-04T07:35:11;9.00;99.90
52321;DHT22;38261;54.090;13.382;2022-11-04T07:36:33;9.00;99.90
52321;DHT22;38261;54.090;13.382;2022-11-04T07:37:55;9.00;99.90
52321;DHT22;38261;54.090;13.382;2022-11-04T07:39:17;9.00;99.90
52321;DHT22;38261;54.090;13.382;2022-11-04T07:40:39;9.00;99.90
52321;DHT22;38261;54.090;13.382;2022-11-04T07:42:01;9.00;99.90
52321;DHT22;38261;54.090;13.382;2022-11-04T07:43:23;9.00;99.90
52321;DHT22;38261;54.090;13.382;2022-11-04T07:44:46;9.00;99.90
52321;DHT22;38261;54.090;13.382;2022-11-04T07:46:11;9.00;99.90
52321;DHT22;38261;54.090;13.382;2022-11-04T07:47:35;9.00;99.90
52321;DHT22;38261;54.090;13.382;2022-11-04T07:48:58;9.00;99.90
52321;DHT22;38261;54.090;13.382;2022-11-04T07:50:20;9.00;99.90
52321;DHT22;38261;54.090;13.382;2022-11-04T07:51:42;9.00;99.90
52321;DHT22;38261;54.090;13.382;2022-11-04T07:53:04;9.00;99.90
52321;DHT22;38261;54.090;13.382;2022-11-04T07:54:27;9.00;99.90
52321;DHT22;38261;54.090;13.382;2022-11-04T07:55:49;9.00;99.90
52321;DHT22;38261;54.090;13.382;2022-11-04T07:57:12;9.10;99.90
52321;DHT22;38261;54.090;13.382;2022-11-04T07:58:34;9.10;99.90
52321;DHT22;38261;54.090;13.382;2022-11-04T07:59:56;9.10;99.90
52321;DHT22;38261;54.090;13.382;2022-11-04T08:01:20;9.10;99.90
52321;DHT22;38261;54.090;13.382;2022-11-04T08:02:44;9.10;99.90
52321;DHT22;38261;54.090;13.382;2022-11-04T08:04:07;9.10;99.90
52321;DHT22;38261;54.090;13.382;2022-11-04T08:05:29;9.10;99.90
52321;DHT22;38261;54.090;13.382;2022-11-04T08:06:51;9.20;99.90
52321;DHT22;38261;54.090;13.382;2022-11-04T08:08:14;9.20;99.90
52321;DHT22;38261;54.090;13.382;2022-11-04T08:09:36;9.20;99.90
52321;DHT22;38261;54.090;13.382;2022-11-04T08:11:07;9.20;99.90
52321;DHT22;38261;54.090;13.382;2022-11-04T08:12:37;9.20;99.90
52321;DHT22;38261;54.090;13.382;2022-11-04T08:14:02;9.20;99.90
52321;DHT22;38261;54.090;13.382;2022-11-04T08:15:24;9.30;99.90
52321;DHT22;38261;54.090;13.382;2022-11-04T08:16:49;9.30;99.90
52321;DHT22;38261;54.090;13.382;2022-11-04T08:18:12;9.30;99.90
52321;DHT22;38261;54.090;13.382;2022-11-04T08:19:34;9.30;99.90
52321;DHT22;38261;54.090;13.382;2022-11-04T08:20:56;9.40;99.90
52321;DHT22;38261;54.090;13.382;2022-11-04T08:22:18;9.40;99.90
52321;DHT22;38261;54.090;13.382;2022-11-04T08:23:40;9.40;99.90
52321;DHT22;38261;54.090;13.382;2022-11-04T08:25:02;9.40;99.90
52321;DHT22;38261;54.090;13.382;2022-11-04T08:26:25;9.40;99.90
52321;DHT22;38261;54.090;13.382;2022-11-04T08:27:47;9.50;99.90
52321;DHT22;38261;54.090;13.382;2022-11-04T08:29:09;9.50;99.90
52321;DHT22;38261;54.090;13.382;2022-11-04T08:30:31;9.50;99.90
52321;DHT22;38261;54.090;13.382;2022-11-04T08:31:54;9.50;99.90
52321;DHT22;38261;54.090;13.382;2022-11-04T08:33:16;9.50;99.90
52321;DHT22;38261;54.090;13.382;2022-11-04T08:34:38;9.60;99.90
52321;DHT22;38261;54.090;13.382;2022-11-04T08:36:07;9.60;99.90
52321;DHT22;38261;54.090;13.382;2022-11-04T08:37:30;9.60;99.90
52321;DHT22;38261;54.090;13.382;2022-11-04T08:38:52;9.60;99.90
52321;DHT22;38261;54.090;13.382;2022-11-04T08:40:15;9.60;99.90
52321;DHT22;38261;54.090;13.382;2022-11-04T08:41:40;9.60;99.90
52321;DHT22;38261;54.090;13.382;2022-11-04T08:43:02;9.60;99.90
52321;DHT22;38261;54.090;13.382;2022-11-04T08:44:24;9.60;99.90
52321;DHT22;38261;54.090;13.382;2022-11-04T08:45:46;9.70;99.90
52321;DHT22;38261;54.090;13.382;2022-11-04T08:47:09;9.70;99.90
52321;DHT22;38261;54.090;13.382;2022-11-04T08:48:31;9.70;99.90
52321;DHT22;38261;54.090;13.382;2022-11-04T08:49:54;9.70;99.90
52321;DHT22;38261;54.090;13.382;2022-11-04T08:51:19;9.80;99.90
52321;DHT22;38261;54.090;13.382;2022-11-04T08:52:41;9.80;99.90
52321;DHT22;38261;54.090;13.382;2022-11-04T08:54:04;9.80;99.90
52321;DHT22;38261;54.090;13.382;2022-11-04T08:55:30;9.80;99.90
52321;DHT22;38261;54.090;13.382;2022-11-04T08:56:52;9.80;99.90
52321;DHT22;38261;54.090;13.382;2022-11-04T08:58:15;9.90;99.90
52321;DHT22;38261;54.090;13.382;2022-11-04T08:59:37;9.90;99.90
52321;DHT22;38261;54.090;13.382;2022-11-04T09:01:03;10.00;99.90
52321;DHT22;38261;54.090;13.382;2022-11-04T09:02:25;10.00;99.90
52321;DHT22;38261;54.090;13.382;2022-11-04T09:03:48;10.00;99.90
52321;DHT22;38261;54.090;13.382;2022-11-04T09:05:10;10.00;99.90
52321;DHT22;38261;54.090;13.382;2022-11-04T09:06:35;10.00;99.90
52321;DHT22;38261;54.090;13.382;2022-11-04T09:07:58;10.10;99.90
52321;DHT22;38261;54.090;13.382;2022-11-04T09:09:21;10.10;99.90
52321;DHT22;38261;54.090;13.382;2022-11-04T09:10:45;10.10;99.90
52321;DHT22;38261;54.090;13.382;2022-11-04T09:12:10;10.10;99.90
52321;DHT22;38261;54.090;13.382;2022-11-04T09:13:32;10.10;99.90
52321;DHT22;38261;54.090;13.382;2022-11-04T09:15:01;10.10;99.90
52321;DHT22;38261;54.090;13.382;2022-11-04T09:16:23;10.10;99.90
52321;DHT22;38261;54.090;13.382;2022-11-04T09:17:45;10.10;99.90
52321;DHT22;38261;54.090;13.382;2022-11-04T09:19:07;10.10;99.90
52321;DHT22;38261;54.090;13.382;2022-11-04T09:20:29;10.10;99.90
52321;DHT22;38261;54.090;13.382;2022-11-04T09:21:52;10.10;99.90
52321;DHT22;38261;54.090;13.382;2022-11-04T09:23:14;10.10;99.90
52321;DHT22;38261;54.090;13.382;2022-11-04T09:24:36;10.10;99.90
52321;DHT22;38261;54.090;13.382;2022-11-04T09:26:10;10.10;99.90
52321;DHT22;38261;54.090;13.382;2022-11-04T09:27:32;10.20;99.90
52321;DHT22;38261;54.090;13.382;2022-11-04T09:28:55;10.20;99.90
52321;DHT22;38261;54.090;13.382;2022-11-04T09:30:17;10.20;99.90
52321;DHT22;38261;54.090;13.382;2022-11-04T09:31:39;10.20;99.90
52321;DHT22;38261;54.090;13.382;2022-11-04T09:33:03;10.30;99.90